Time;durP1;ratioP1;P1;durP2;ratioP2;P2;SDS_P1;SDS_P2;PMS_P1;PMS_P2;Temp;Humidity;BMP_temperature;BMP_pressure;BME280_temperature;BME280_humidity;BME280_pressure;Samples;Min_cycle;Max_cycle;Signal;HPM_P1;HPM_P2
2022/08/15 00:01:08;;;;;;;;;;;26.60;56.30;;;;;;5090741;28;19956;-66
2022/08/15 00:03:35;;;;;;;;;;;26.50;56.20;;;;;;5091255;28;19923;-66
2022/08/15 00:06:03;;;;;;;;;;;26.50;56.40;;;;;;5090900;28;19977;-66
2022/08/15 00:08:30;;;;;;;;;;;26.50;56.30;;;;;;5081338;28;19912;-66
2022/08/15 00:10:57;;;;;;;;;;;26.50;56.30;;;;;;5090593;28;19924;-66
2022/08/15 00:13:25;;;;;;;;;;;26.40;56.30;;;;;;5090565;28;19920;-66
2022/08/15 00:15:55;;;;;;;;;;;26.40;56.30;;;;;;5091349;28;19908;-66
2022/08/15 00:18:22;;;;;;;;;;;26.40;56.50;;;;;;5088916;28;20366;-66
2022/08/15 00:20:48;;;;;;;;;;;26.30;56.60;;;;;;5089915;28;20268;-67
2022/08/15 00:23:14;;;;;;;;;;;26.20;56.70;;;;;;5091699;28;19930;-67
2022/08/15 00:25:40;;;;;;;;;;;26.20;56.60;;;;;;5086076;28;19919;-66
2022/08/15 00:28:07;;;;;;;;;;;26.20;56.50;;;;;;5089559;28;19908;-67
2022/08/15 00:30:36;;;;;;;;;;;26.20;56.60;;;;;;5102704;28;19915;-67
2022/08/15 00:33:02;;;;;;;;;;;26.20;56.90;;;;;;5098804;28;19916;-66
2022/08/15 00:35:38;;;;;;;;;;;26.10;56.90;;;;;;5106901;28;19913;-66
2022/08/15 00:38:11;;;;;;;;;;;26.00;56.90;;;;;;5109875;28;19916;-66
2022/08/15 00:43:22;;;;;;;;;;;26.00;56.90;;;;;;5111274;28;19923;-67
2022/08/15 00:45:48;;;;;;;;;;;26.00;56.90;;;;;;5111384;28;19984;-67
2022/08/15 00:50:58;;;;;;;;;;;26.00;57.00;;;;;;5105147;28;19957;-66
2022/08/15 00:53:24;;;;;;;;;;;25.90;57.20;;;;;;5111419;28;19916;-66
2022/08/15 00:55:50;;;;;;;;;;;25.90;57.30;;;;;;5111551;28;19912;-66
2022/08/15 00:58:16;;;;;;;;;;;25.90;57.40;;;;;;5108319;27;20274;-66
2022/08/15 01:00:43;;;;;;;;;;;25.90;57.60;;;;;;5080198;28;20394;-66
2022/08/15 01:03:12;;;;;;;;;;;25.80;57.70;;;;;;5095225;28;19912;-67
2022/08/15 01:05:39;;;;;;;;;;;25.90;57.80;;;;;;5103718;28;20370;-60
2022/08/15 01:08:05;;;;;;;;;;;25.80;57.70;;;;;;5103365;28;20004;-59
2022/08/15 01:10:31;;;;;;;;;;;25.80;57.60;;;;;;5110765;28;19972;-59
2022/08/15 01:12:56;;;;;;;;;;;25.80;57.50;;;;;;5111059;28;19919;-59
2022/08/15 01:15:22;;;;;;;;;;;25.80;57.50;;;;;;5108916;28;19923;-59
2022/08/15 01:17:48;;;;;;;;;;;25.80;57.50;;;;;;5097499;28;19915;-59
2022/08/15 01:20:16;;;;;;;;;;;25.80;57.60;;;;;;5109446;28;20166;-59
2022/08/15 01:22:47;;;;;;;;;;;25.80;57.90;;;;;;5111475;28;20008;-59
2022/08/15 01:25:19;;;;;;;;;;;25.70;57.90;;;;;;5105817;28;19915;-59
2022/08/15 01:27:51;;;;;;;;;;;25.70;58.20;;;;;;5107566;28;19912;-59
2022/08/15 01:30:19;;;;;;;;;;;25.70;58.50;;;;;;5096667;28;19953;-59
2022/08/15 01:32:46;;;;;;;;;;;25.70;58.50;;;;;;5099265;28;19912;-60
2022/08/15 01:35:11;;;;;;;;;;;25.70;58.50;;;;;;5084249;28;19919;-60
2022/08/15 01:37:38;;;;;;;;;;;25.60;58.40;;;;;;5095488;28;19924;-60
2022/08/15 01:40:13;;;;;;;;;;;25.60;58.50;;;;;;5108328;28;19912;-61
2022/08/15 01:42:41;;;;;;;;;;;25.60;58.50;;;;;;5095723;28;20355;-60
2022/08/15 01:45:10;;;;;;;;;;;25.60;58.40;;;;;;5077024;28;20193;-61
2022/08/15 01:47:35;;;;;;;;;;;25.50;58.30;;;;;;5097525;28;20457;-60
2022/08/15 01:50:07;;;;;;;;;;;25.50;58.50;;;;;;5104796;28;19908;-61
2022/08/15 01:53:02;;;;;;;;;;;25.50;58.50;;;;;;5078506;28;20256;-60
2022/08/15 01:55:30;;;;;;;;;;;25.50;58.60;;;;;;5076098;28;19912;-61
2022/08/15 01:57:56;;;;;;;;;;;25.50;58.50;;;;;;5103949;28;19986;-60
2022/08/15 02:00:21;;;;;;;;;;;25.50;58.50;;;;;;5109787;28;20378;-60
2022/08/15 02:02:47;;;;;;;;;;;25.40;58.50;;;;;;5100408;28;20321;-60
2022/08/15 02:05:13;;;;;;;;;;;25.40;58.60;;;;;;5106902;28;19912;-59
2022/08/15 02:07:38;;;;;;;;;;;25.30;58.50;;;;;;5104093;28;19919;-59
2022/08/15 02:10:04;;;;;;;;;;;25.30;58.50;;;;;;5109882;28;20177;-59
2022/08/15 02:12:35;;;;;;;;;;;25.30;58.60;;;;;;5110732;28;19962;-60
2022/08/15 02:15:06;;;;;;;;;;;25.20;58.60;;;;;;5108573;28;19969;-60
2022/08/15 02:17:31;;;;;;;;;;;25.20;58.70;;;;;;5094314;28;19941;-60
2022/08/15 02:19:58;;;;;;;;;;;25.10;58.60;;;;;;5101169;28;19969;-67
2022/08/15 02:22:24;;;;;;;;;;;25.10;58.50;;;;;;5108694;28;20298;-67
2022/08/15 02:24:49;;;;;;;;;;;25.10;58.40;;;;;;5101918;28;19912;-66
2022/08/15 02:27:15;;;;;;;;;;;25.10;58.60;;;;;;5091558;28;19954;-66
2022/08/15 02:29:41;;;;;;;;;;;25.10;58.60;;;;;;5094638;28;19951;-66
2022/08/15 02:32:12;;;;;;;;;;;25.10;58.70;;;;;;5109423;28;19965;-66
2022/08/15 02:34:38;;;;;;;;;;;25.10;58.60;;;;;;5105968;28;19919;-66
2022/08/15 02:37:05;;;;;;;;;;;25.10;58.60;;;;;;5097092;28;19927;-66
2022/08/15 02:39:31;;;;;;;;;;;25.10;58.80;;;;;;5104930;28;19954;-66
2022/08/15 02:41:57;;;;;;;;;;;25.00;59.00;;;;;;5106433;28;19943;-66
2022/08/15 02:44:23;;;;;;;;;;;24.90;59.00;;;;;;5109639;28;19911;-66
2022/08/15 02:46:52;;;;;;;;;;;24.90;59.10;;;;;;5104516;28;20274;-66
2022/08/15 02:49:19;;;;;;;;;;;24.90;59.20;;;;;;5104978;28;19916;-66
2022/08/15 02:51:46;;;;;;;;;;;24.90;59.40;;;;;;5107862;28;19961;-66
2022/08/15 02:54:13;;;;;;;;;;;24.80;59.40;;;;;;5111597;28;19943;-66
2022/08/15 02:56:39;;;;;;;;;;;24.80;59.50;;;;;;5105092;28;19914;-66
2022/08/15 02:59:07;;;;;;;;;;;24.80;59.40;;;;;;5096832;28;19925;-66
2022/08/15 03:01:37;;;;;;;;;;;24.70;59.50;;;;;;5100592;28;19916;-59
2022/08/15 03:04:04;;;;;;;;;;;24.70;59.60;;;;;;5112977;28;19911;-60
2022/08/15 03:06:30;;;;;;;;;;;24.70;59.70;;;;;;5097335;28;19966;-66
2022/08/15 03:09:00;;;;;;;;;;;24.70;59.70;;;;;;5113160;28;20452;-66
2022/08/15 03:11:26;;;;;;;;;;;24.60;59.60;;;;;;5112728;28;19911;-66
2022/08/15 03:13:52;;;;;;;;;;;24.60;59.70;;;;;;5085691;28;19930;-66
2022/08/15 03:16:18;;;;;;;;;;;24.50;59.80;;;;;;5112766;28;19913;-67
2022/08/15 03:18:43;;;;;;;;;;;24.60;60.00;;;;;;5113050;28;20362;-66
2022/08/15 03:21:13;;;;;;;;;;;24.50;60.10;;;;;;5112078;28;19912;-66
2022/08/15 03:23:46;;;;;;;;;;;24.50;60.20;;;;;;5113625;28;19912;-66
2022/08/15 03:26:12;;;;;;;;;;;24.40;60.50;;;;;;5102125;28;19919;-67
2022/08/15 03:28:37;;;;;;;;;;;24.40;60.60;;;;;;5102202;28;19924;-66
2022/08/15 03:31:05;;;;;;;;;;;24.40;60.60;;;;;;5107531;28;19916;-67
2022/08/15 03:33:32;;;;;;;;;;;24.30;60.70;;;;;;5096291;28;19960;-66
2022/08/15 03:35:58;;;;;;;;;;;24.30;60.80;;;;;;5105977;28;20006;-66
2022/08/15 03:38:24;;;;;;;;;;;24.30;60.80;;;;;;5103268;28;19998;-67
2022/08/15 03:40:50;;;;;;;;;;;24.20;60.90;;;;;;5108281;28;20068;-67
2022/08/15 03:43:20;;;;;;;;;;;24.20;61.00;;;;;;5108753;28;19911;-67
2022/08/15 03:45:48;;;;;;;;;;;24.10;61.30;;;;;;5107450;28;20354;-66
2022/08/15 03:48:14;;;;;;;;;;;24.10;61.50;;;;;;5104850;28;20002;-66
2022/08/15 03:50:39;;;;;;;;;;;24.00;61.50;;;;;;5103320;28;20018;-67
2022/08/15 03:53:06;;;;;;;;;;;24.00;61.60;;;;;;5106634;28;19923;-66
2022/08/15 03:55:33;;;;;;;;;;;23.90;61.60;;;;;;5104324;28;19935;-66
2022/08/15 03:57:59;;;;;;;;;;;23.90;61.70;;;;;;5107724;28;19911;-66
2022/08/15 04:00:27;;;;;;;;;;;23.90;61.80;;;;;;5098840;28;19936;-66
2022/08/15 04:03:04;;;;;;;;;;;23.80;61.80;;;;;;5100925;28;20163;-67
2022/08/15 04:05:30;;;;;;;;;;;23.80;62.00;;;;;;5097504;28;19916;-67
2022/08/15 04:07:56;;;;;;;;;;;23.70;62.00;;;;;;5091691;28;19924;-66
2022/08/15 04:10:21;;;;;;;;;;;23.70;62.20;;;;;;5087527;28;19912;-66
2022/08/15 04:12:47;;;;;;;;;;;23.60;62.30;;;;;;5090307;28;19994;-67
2022/08/15 04:15:14;;;;;;;;;;;23.60;62.50;;;;;;5096712;28;19912;-66
2022/08/15 04:17:40;;;;;;;;;;;23.60;62.70;;;;;;5090339;28;19947;-66
2022/08/15 04:20:08;;;;;;;;;;;23.50;62.70;;;;;;5090355;28;19951;-66
2022/08/15 04:22:35;;;;;;;;;;;23.50;62.70;;;;;;5088709;28;19912;-64
2022/08/15 04:25:01;;;;;;;;;;;23.50;62.70;;;;;;5085428;28;20331;-66
2022/08/15 04:27:26;;;;;;;;;;;23.50;62.90;;;;;;5090410;28;20321;-66
2022/08/15 04:29:52;;;;;;;;;;;23.40;63.10;;;;;;5096974;28;20264;-67
2022/08/15 04:32:19;;;;;;;;;;;23.40;63.20;;;;;;5097862;28;19922;-66
2022/08/15 04:34:44;;;;;;;;;;;23.40;63.40;;;;;;5088310;28;19918;-67
2022/08/15 04:37:12;;;;;;;;;;;23.40;63.50;;;;;;5090346;28;20375;-66
2022/08/15 04:39:38;;;;;;;;;;;23.40;63.70;;;;;;5090788;28;19924;-66
2022/08/15 04:42:03;;;;;;;;;;;23.40;63.50;;;;;;5096470;28;20328;-60
2022/08/15 04:44:29;;;;;;;;;;;23.40;63.70;;;;;;5096621;28;20369;-60
2022/08/15 04:46:55;;;;;;;;;;;23.40;63.90;;;;;;5087921;28;19920;-66
2022/08/15 04:49:20;;;;;;;;;;;23.30;63.80;;;;;;5090804;28;20415;-60
2022/08/15 04:51:46;;;;;;;;;;;23.30;63.80;;;;;;5089897;28;19935;-60
2022/08/15 04:54:12;;;;;;;;;;;23.30;63.80;;;;;;5090840;28;19912;-59
2022/08/15 04:56:37;;;;;;;;;;;23.30;64.00;;;;;;5091475;28;19944;-59
2022/08/15 04:59:03;;;;;;;;;;;23.40;64.20;;;;;;5090779;28;19928;-59
2022/08/15 05:01:28;;;;;;;;;;;23.40;64.30;;;;;;5089630;28;19952;-60
2022/08/15 05:03:54;;;;;;;;;;;23.40;64.50;;;;;;5090135;28;20287;-59
2022/08/15 05:06:19;;;;;;;;;;;23.40;64.40;;;;;;5098967;28;20332;-60
2022/08/15 05:08:45;;;;;;;;;;;23.40;64.60;;;;;;5092309;28;19934;-60
2022/08/15 05:11:11;;;;;;;;;;;23.40;64.60;;;;;;5091270;28;20019;-60
2022/08/15 05:13:38;;;;;;;;;;;23.40;64.50;;;;;;5088508;28;19928;-60
2022/08/15 05:16:07;;;;;;;;;;;23.40;65.00;;;;;;5094531;28;20530;-60
2022/08/15 05:18:34;;;;;;;;;;;23.40;65.00;;;;;;5093380;28;19909;-66
2022/08/15 05:20:59;;;;;;;;;;;23.40;65.10;;;;;;5090229;28;20282;-59
2022/08/15 05:23:25;;;;;;;;;;;23.50;65.20;;;;;;5090435;28;19912;-61
2022/08/15 05:25:56;;;;;;;;;;;23.50;65.00;;;;;;5089201;28;19927;-60
2022/08/15 05:28:22;;;;;;;;;;;23.50;65.00;;;;;;5088219;28;19922;-60
2022/08/15 05:30:49;;;;;;;;;;;23.60;65.20;;;;;;5104594;28;19981;-61
2022/08/15 05:33:25;;;;;;;;;;;23.60;65.00;;;;;;5106017;28;20389;-60
2022/08/15 05:35:54;;;;;;;;;;;23.60;65.20;;;;;;5103295;28;19916;-59
2022/08/15 05:38:24;;;;;;;;;;;23.70;65.10;;;;;;5109757;28;19915;-60
2022/08/15 05:41:02;;;;;;;;;;;23.70;65.00;;;;;;5100609;28;19908;-59
2022/08/15 05:43:37;;;;;;;;;;;23.70;65.00;;;;;;5078162;28;20805;-59
2022/08/15 05:46:09;;;;;;;;;;;23.80;64.80;;;;;;5102560;28;19912;-60
2022/08/15 05:48:35;;;;;;;;;;;23.70;64.80;;;;;;5077298;28;20409;-66
2022/08/15 05:51:25;;;;;;;;;;;23.70;64.60;;;;;;5102083;28;19954;-67
2022/08/15 05:54:09;;;;;;;;;;;23.70;64.50;;;;;;5106111;28;19968;-67
2022/08/15 05:57:04;;;;;;;;;;;23.70;64.30;;;;;;5086969;28;19916;-67
2022/08/15 05:59:38;;;;;;;;;;;23.80;63.90;;;;;;5084919;28;19924;-67
2022/08/15 06:02:09;;;;;;;;;;;23.80;63.50;;;;;;5095545;28;20426;-67
2022/08/15 06:04:37;;;;;;;;;;;23.90;63.00;;;;;;5110082;28;20423;-67
2022/08/15 06:07:22;;;;;;;;;;;23.80;62.50;;;;;;5109319;28;20094;-67
2022/08/15 06:09:53;;;;;;;;;;;23.80;62.30;;;;;;5097264;27;20006;-67
2022/08/15 06:12:21;;;;;;;;;;;23.80;62.30;;;;;;5094882;28;20236;-67
2022/08/15 06:14:50;;;;;;;;;;;23.80;62.10;;;;;;5109976;28;19973;-67
2022/08/15 06:17:28;;;;;;;;;;;23.80;61.70;;;;;;5106953;28;19915;-67
2022/08/15 06:19:56;;;;;;;;;;;23.80;61.80;;;;;;5108492;28;20062;-60
2022/08/15 06:22:40;;;;;;;;;;;23.90;61.30;;;;;;5098076;28;20389;-60
2022/08/15 06:25:05;;;;;;;;;;;24.10;61.30;;;;;;5093576;28;20387;-60
2022/08/15 06:27:52;;;;;;;;;;;24.30;60.90;;;;;;5106033;28;19990;-64
2022/08/15 06:30:21;;;;;;;;;;;24.40;60.20;;;;;;5098950;28;19908;-60
2022/08/15 06:32:50;;;;;;;;;;;24.50;59.90;;;;;;5098026;28;19931;-60
2022/08/15 06:35:19;;;;;;;;;;;24.60;59.80;;;;;;5107371;28;19912;-60
2022/08/15 06:38:03;;;;;;;;;;;24.70;59.40;;;;;;5093231;28;19908;-60
2022/08/15 06:40:33;;;;;;;;;;;24.70;58.90;;;;;;5099022;28;19916;-60
2022/08/15 06:42:59;;;;;;;;;;;24.80;58.50;;;;;;5087168;28;20554;-60
2022/08/15 06:45:26;;;;;;;;;;;24.80;57.80;;;;;;5086224;28;19917;-61
2022/08/15 06:47:59;;;;;;;;;;;24.70;57.80;;;;;;5089341;28;20326;-61
2022/08/15 06:50:30;;;;;;;;;;;24.70;58.00;;;;;;5091241;28;19961;-60
2022/08/15 06:53:03;;;;;;;;;;;24.70;57.60;;;;;;5098542;28;19923;-61
2022/08/15 06:55:35;;;;;;;;;;;24.70;57.70;;;;;;5109132;28;20374;-60
2022/08/15 06:58:04;;;;;;;;;;;24.70;57.60;;;;;;5108316;28;19923;-61
2022/08/15 07:00:35;;;;;;;;;;;24.80;57.30;;;;;;5096430;28;20354;-60
2022/08/15 07:03:01;;;;;;;;;;;24.80;57.30;;;;;;5081643;28;19960;-60
2022/08/15 07:05:30;;;;;;;;;;;24.90;57.30;;;;;;5092454;28;20446;-60
2022/08/15 07:08:00;;;;;;;;;;;24.90;57.00;;;;;;5092972;28;19920;-60
2022/08/15 07:10:46;;;;;;;;;;;25.00;57.00;;;;;;5086659;28;19916;-60
2022/08/15 07:13:15;;;;;;;;;;;25.10;57.00;;;;;;5090466;28;19975;-66
2022/08/15 07:15:56;;;;;;;;;;;25.10;56.50;;;;;;5087170;28;20006;-67
2022/08/15 07:18:28;;;;;;;;;;;25.20;56.60;;;;;;5098266;28;20464;-67
2022/08/15 07:21:05;;;;;;;;;;;25.20;56.20;;;;;;5087643;28;19908;-67
2022/08/15 07:23:32;;;;;;;;;;;25.30;56.10;;;;;;5088782;28;20030;-67
2022/08/15 07:26:00;;;;;;;;;;;25.40;55.50;;;;;;5083129;28;19962;-60
2022/08/15 07:28:28;;;;;;;;;;;25.50;55.80;;;;;;5090854;28;19916;-65
2022/08/15 07:31:13;;;;;;;;;;;25.50;55.10;;;;;;5089225;28;19916;-66
2022/08/15 07:33:41;;;;;;;;;;;25.50;54.80;;;;;;5086951;28;19924;-65
2022/08/15 07:36:15;;;;;;;;;;;25.50;54.40;;;;;;5087410;28;19916;-65
2022/08/15 07:38:41;;;;;;;;;;;25.60;54.50;;;;;;5085051;28;19939;-65
2022/08/15 07:41:26;;;;;;;;;;;25.60;54.70;;;;;;5086405;28;19920;-65
2022/08/15 07:44:14;;;;;;;;;;;25.60;54.80;;;;;;5085114;28;19922;-66
2022/08/15 07:46:44;;;;;;;;;;;25.70;54.50;;;;;;5085002;27;19909;-59
2022/08/15 07:49:24;;;;;;;;;;;25.70;54.60;;;;;;5085537;28;19913;-65
2022/08/15 07:51:57;;;;;;;;;;;25.60;54.50;;;;;;5093047;28;20006;-65
2022/08/15 07:54:31;;;;;;;;;;;25.60;54.70;;;;;;5095063;28;19966;-65
2022/08/15 07:56:58;;;;;;;;;;;25.70;54.60;;;;;;5091410;28;19912;-59
2022/08/15 07:59:26;;;;;;;;;;;25.80;54.40;;;;;;5093296;28;19920;-65
2022/08/15 08:01:54;;;;;;;;;;;25.80;54.40;;;;;;5089790;28;19922;-59
2022/08/15 08:04:27;;;;;;;;;;;25.80;54.50;;;;;;5092412;28;19947;-65
2022/08/15 08:07:15;;;;;;;;;;;25.90;54.30;;;;;;5090831;28;20271;-66
2022/08/15 08:09:56;;;;;;;;;;;25.90;54.10;;;;;;5095911;27;19916;-65
2022/08/15 08:12:34;;;;;;;;;;;26.00;54.10;;;;;;5094488;28;20325;-65
2022/08/15 08:15:02;;;;;;;;;;;26.10;53.60;;;;;;5102762;28;20002;-65
2022/08/15 08:17:33;;;;;;;;;;;26.10;53.70;;;;;;5085438;28;20368;-65
2022/08/15 08:20:03;;;;;;;;;;;26.10;53.70;;;;;;5096366;28;19969;-65
2022/08/15 08:22:47;;;;;;;;;;;26.00;53.70;;;;;;5095342;28;19977;-66
2022/08/15 08:25:16;;;;;;;;;;;26.10;53.80;;;;;;5092831;28;19912;-66
2022/08/15 08:27:49;;;;;;;;;;;26.10;53.40;;;;;;5085538;28;20014;-66
2022/08/15 08:30:19;;;;;;;;;;;26.10;53.50;;;;;;5088598;28;19912;-66
2022/08/15 08:32:57;;;;;;;;;;;26.10;53.30;;;;;;5088905;28;19935;-65
2022/08/15 08:35:41;;;;;;;;;;;26.10;53.40;;;;;;5082874;28;20428;-59
2022/08/15 08:38:25;;;;;;;;;;;26.20;53.30;;;;;;5093123;28;19912;-59
2022/08/15 08:43:50;;;;;;;;;;;26.20;53.00;;;;;;5089384;28;20431;-60
2022/08/15 08:46:23;;;;;;;;;;;26.30;52.90;;;;;;5088881;28;20451;-59
2022/08/15 08:48:49;;;;;;;;;;;26.30;52.80;;;;;;5092405;28;19915;-59
2022/08/15 08:51:34;;;;;;;;;;;26.40;52.80;;;;;;5087271;28;19916;-59
2022/08/15 08:54:01;;;;;;;;;;;26.50;52.70;;;;;;5087130;28;19963;-59
2022/08/15 08:56:32;;;;;;;;;;;26.60;52.50;;;;;;5090215;28;19939;-59
2022/08/15 08:59:18;;;;;;;;;;;26.70;52.10;;;;;;5090141;28;19920;-60
2022/08/15 09:01:45;;;;;;;;;;;26.80;52.00;;;;;;5074884;28;20288;-60
2022/08/15 09:04:13;;;;;;;;;;;26.90;51.30;;;;;;5090984;28;19916;-61
2022/08/15 09:06:41;;;;;;;;;;;27.00;51.30;;;;;;5086083;28;20135;-61
2022/08/15 09:09:25;;;;;;;;;;;27.10;51.10;;;;;;5083180;28;20599;-60
2022/08/15 09:11:54;;;;;;;;;;;27.10;50.80;;;;;;5086474;28;19916;-64
2022/08/15 09:14:32;;;;;;;;;;;27.00;50.70;;;;;;5089680;28;19958;-64
2022/08/15 09:17:01;;;;;;;;;;;27.00;50.70;;;;;;5103787;27;20344;-64
2022/08/15 09:19:50;;;;;;;;;;;26.80;51.20;;;;;;5087996;28;19952;-64
2022/08/15 09:22:16;;;;;;;;;;;26.80;51.60;;;;;;5084012;28;19919;-64
2022/08/15 09:24:42;;;;;;;;;;;26.80;51.80;;;;;;5084774;28;19912;-64
2022/08/15 09:27:28;;;;;;;;;;;26.80;51.80;;;;;;5063202;28;20504;-64
2022/08/15 09:30:01;;;;;;;;;;;26.90;51.70;;;;;;5077919;28;20404;-64
2022/08/15 09:32:26;;;;;;;;;;;26.80;51.90;;;;;;5096769;28;19919;-64
2022/08/15 09:34:52;;;;;;;;;;;26.80;52.00;;;;;;5098916;28;19994;-64
2022/08/15 09:37:20;;;;;;;;;;;26.90;52.10;;;;;;5108992;28;19911;-64
2022/08/15 09:40:05;;;;;;;;;;;27.00;52.20;;;;;;5094707;28;19956;-61
2022/08/15 09:42:45;;;;;;;;;;;27.00;52.20;;;;;;5095052;28;19912;-60
2022/08/15 09:45:34;;;;;;;;;;;27.00;52.30;;;;;;5095444;28;19912;-60
2022/08/15 09:48:18;;;;;;;;;;;26.90;52.50;;;;;;5103939;28;19962;-61
2022/08/15 09:50:50;;;;;;;;;;;26.80;52.70;;;;;;5088080;28;20325;-60
2022/08/15 09:53:21;;;;;;;;;;;26.60;52.60;;;;;;5090512;28;19935;-61
2022/08/15 09:55:48;;;;;;;;;;;26.60;52.80;;;;;;5087304;28;19912;-60
2022/08/15 09:58:34;;;;;;;;;;;26.60;52.80;;;;;;5090516;28;20290;-60
2022/08/15 10:01:09;;;;;;;;;;;26.50;52.90;;;;;;5099437;28;20534;-64
2022/08/15 10:03:43;;;;;;;;;;;26.50;53.10;;;;;;5085063;28;19916;-64
2022/08/15 10:06:16;;;;;;;;;;;26.40;53.10;;;;;;5085591;28;19908;-64
2022/08/15 10:08:52;;;;;;;;;;;26.50;53.20;;;;;;5085212;28;19934;-64
2022/08/15 10:11:27;;;;;;;;;;;26.50;53.10;;;;;;5078499;28;20299;-64
2022/08/15 10:14:06;;;;;;;;;;;26.60;53.10;;;;;;5089559;28;19928;-64
2022/08/15 10:16:41;;;;;;;;;;;26.60;53.30;;;;;;5087821;28;19920;-64
2022/08/15 10:19:25;;;;;;;;;;;26.60;53.30;;;;;;5105485;28;20603;-60
2022/08/15 10:21:51;;;;;;;;;;;26.60;53.40;;;;;;5099184;28;19916;-61
2022/08/15 10:24:21;;;;;;;;;;;26.60;53.50;;;;;;5104104;28;19927;-60
2022/08/15 10:27:07;;;;;;;;;;;26.70;53.40;;;;;;5103254;28;19919;-60
2022/08/15 10:29:33;;;;;;;;;;;26.70;53.60;;;;;;5105383;28;19962;-60
2022/08/15 10:31:59;;;;;;;;;;;26.80;53.90;;;;;;5091870;28;20358;-60
2022/08/15 10:34:35;;;;;;;;;;;26.80;53.90;;;;;;5101651;28;19920;-60
2022/08/15 10:37:23;;;;;;;;;;;26.90;53.90;;;;;;5099561;28;19950;-60
2022/08/15 10:40:07;;;;;;;;;;;27.00;54.10;;;;;;5096480;28;19940;-64
2022/08/15 10:42:38;;;;;;;;;;;27.00;54.50;;;;;;5102571;28;19912;-64
2022/08/15 10:45:15;;;;;;;;;;;27.00;54.70;;;;;;5100234;28;20406;-61
2022/08/15 10:47:47;;;;;;;;;;;27.00;55.40;;;;;;5082817;28;19917;-60
2022/08/15 10:50:16;;;;;;;;;;;26.90;55.30;;;;;;5082614;28;20612;-60
2022/08/15 10:53:04;;;;;;;;;;;27.00;55.40;;;;;;5090864;28;20351;-60
2022/08/15 10:55:32;;;;;;;;;;;27.20;55.20;;;;;;5082519;28;20600;-60
2022/08/15 10:58:00;;;;;;;;;;;27.20;55.10;;;;;;5085314;28;19916;-60
2022/08/15 11:00:29;;;;;;;;;;;27.50;54.90;;;;;;5088924;28;19965;-60
2022/08/15 11:02:56;;;;;;;;;;;27.70;54.50;;;;;;5090098;28;19951;-61
2022/08/15 11:05:24;;;;;;;;;;;28.00;54.10;;;;;;5084451;28;19926;-60
2022/08/15 11:07:51;;;;;;;;;;;28.10;53.70;;;;;;5088483;28;19943;-60
2022/08/15 11:10:19;;;;;;;;;;;28.10;53.80;;;;;;5095001;28;19999;-60
2022/08/15 11:12:46;;;;;;;;;;;28.20;53.90;;;;;;5087713;28;19912;-61
2022/08/15 11:15:25;;;;;;;;;;;28.30;53.80;;;;;;5094072;28;19959;-64
2022/08/15 11:18:00;;;;;;;;;;;28.50;53.70;;;;;;5088824;27;19916;-64
2022/08/15 11:20:34;;;;;;;;;;;28.60;53.40;;;;;;5083077;28;19920;-64
2022/08/15 11:23:00;;;;;;;;;;;28.60;53.40;;;;;;5086335;28;19912;-64
2022/08/15 11:25:29;;;;;;;;;;;28.50;53.50;;;;;;5091537;28;19959;-64
2022/08/15 11:28:17;;;;;;;;;;;28.40;53.80;;;;;;5087426;28;19927;-60
2022/08/15 11:30:43;;;;;;;;;;;28.30;54.20;;;;;;5090855;27;20320;-61
2022/08/15 11:33:19;;;;;;;;;;;28.10;54.40;;;;;;5095578;28;19920;-60
2022/08/15 11:35:45;;;;;;;;;;;28.00;54.60;;;;;;5088721;28;19911;-64
2022/08/15 11:38:12;;;;;;;;;;;28.00;54.90;;;;;;5090017;28;19924;-64
2022/08/15 11:40:40;;;;;;;;;;;27.90;55.00;;;;;;5092519;28;19962;-64
2022/08/15 11:43:06;;;;;;;;;;;27.80;55.20;;;;;;5090661;28;19916;-64
2022/08/15 11:45:34;;;;;;;;;;;27.70;55.60;;;;;;5094021;28;19912;-64
2022/08/15 11:48:00;;;;;;;;;;;27.60;55.90;;;;;;5093027;28;20271;-61
2022/08/15 11:50:25;;;;;;;;;;;27.50;56.20;;;;;;5093659;28;19966;-61
2022/08/15 11:52:54;;;;;;;;;;;27.50;56.00;;;;;;5089719;28;19966;-60
2022/08/15 11:55:26;;;;;;;;;;;27.40;56.30;;;;;;5091984;28;19912;-60
2022/08/15 11:57:53;;;;;;;;;;;27.30;56.70;;;;;;5092339;28;19980;-64
2022/08/15 12:00:28;;;;;;;;;;;27.10;57.00;;;;;;5093340;28;20424;-64
2022/08/15 12:02:54;;;;;;;;;;;27.10;57.10;;;;;;5098383;28;19916;-61
2022/08/15 12:05:30;;;;;;;;;;;27.10;57.50;;;;;;5106206;27;20007;-60
2022/08/15 12:07:57;;;;;;;;;;;27.20;57.40;;;;;;5101695;28;19965;-60
2022/08/15 12:10:41;;;;;;;;;;;27.40;57.10;;;;;;5102646;28;19919;-61
2022/08/15 12:13:07;;;;;;;;;;;27.60;56.80;;;;;;5097121;28;19985;-61
2022/08/15 12:15:33;;;;;;;;;;;27.80;56.60;;;;;;5100911;28;19955;-61
2022/08/15 12:18:11;;;;;;;;;;;27.90;56.30;;;;;;5105717;28;19912;-60
2022/08/15 12:20:41;;;;;;;;;;;27.80;55.90;;;;;;5102436;27;19922;-60
2022/08/15 12:23:20;;;;;;;;;;;27.70;56.20;;;;;;5097449;28;19916;-59
2022/08/15 12:25:50;;;;;;;;;;;27.70;56.30;;;;;;5100303;28;19974;-59
2022/08/15 12:28:16;;;;;;;;;;;27.80;56.10;;;;;;5090460;28;19973;-59
2022/08/15 12:30:41;;;;;;;;;;;27.80;56.00;;;;;;5103333;28;20331;-59
2022/08/15 12:33:08;;;;;;;;;;;27.80;55.90;;;;;;5099768;28;19996;-60
2022/08/15 12:35:34;;;;;;;;;;;27.80;55.90;;;;;;5093985;27;20356;-60
2022/08/15 12:38:00;;;;;;;;;;;27.70;56.00;;;;;;5092379;28;19921;-60
2022/08/15 12:40:26;;;;;;;;;;;27.70;56.10;;;;;;5091344;28;19920;-60
2022/08/15 12:42:51;;;;;;;;;;;27.80;56.10;;;;;;5091429;28;19927;-61
2022/08/15 12:45:21;;;;;;;;;;;27.80;56.00;;;;;;5092775;28;19969;-61
2022/08/15 12:47:47;;;;;;;;;;;27.80;56.00;;;;;;5085202;28;19916;-60
2022/08/15 12:50:13;;;;;;;;;;;27.70;56.40;;;;;;5086668;28;19918;-60
2022/08/15 12:52:39;;;;;;;;;;;27.60;56.40;;;;;;5089475;28;19995;-64
2022/08/15 12:55:05;;;;;;;;;;;27.60;56.40;;;;;;5089282;28;20013;-64
2022/08/15 12:57:30;;;;;;;;;;;27.60;56.50;;;;;;5097988;28;19908;-64
2022/08/15 12:59:56;;;;;;;;;;;27.60;56.50;;;;;;5093388;28;19928;-64
2022/08/15 13:02:22;;;;;;;;;;;27.60;56.60;;;;;;5099074;28;19919;-63
2022/08/15 13:04:52;;;;;;;;;;;27.50;56.20;;;;;;5091816;28;20426;-64
2022/08/15 13:07:19;;;;;;;;;;;27.50;56.20;;;;;;5091684;28;19930;-64
2022/08/15 13:09:45;;;;;;;;;;;27.40;56.30;;;;;;5097181;28;19994;-64
2022/08/15 13:12:11;;;;;;;;;;;27.50;56.30;;;;;;5094908;28;20462;-64
2022/08/15 13:14:36;;;;;;;;;;;27.60;56.20;;;;;;5088881;28;19920;-64
2022/08/15 13:17:03;;;;;;;;;;;27.80;56.10;;;;;;5093370;28;19927;-64
2022/08/15 13:19:31;;;;;;;;;;;27.90;55.70;;;;;;5101200;28;19965;-65
2022/08/15 13:24:41;;;;;;;;;;;28.10;56.00;;;;;;5086367;28;20143;-64
2022/08/15 13:27:07;;;;;;;;;;;28.20;55.20;;;;;;5087177;28;19921;-64
2022/08/15 13:29:33;;;;;;;;;;;28.30;55.10;;;;;;5088421;28;20015;-65
2022/08/15 13:32:00;;;;;;;;;;;28.30;54.90;;;;;;5085441;28;20049;-66
2022/08/15 13:34:30;;;;;;;;;;;28.30;55.00;;;;;;5078039;28;19929;-65
2022/08/15 13:36:56;;;;;;;;;;;28.40;54.90;;;;;;5081954;28;20524;-61
2022/08/15 13:39:28;;;;;;;;;;;28.50;54.70;;;;;;5090404;28;19961;-61
2022/08/15 13:41:53;;;;;;;;;;;28.60;54.50;;;;;;5093390;28;19916;-60
2022/08/15 13:44:19;;;;;;;;;;;28.60;54.10;;;;;;5100185;28;19912;-61
2022/08/15 13:46:47;;;;;;;;;;;28.60;54.10;;;;;;5090777;28;19917;-60
2022/08/15 13:49:13;;;;;;;;;;;28.60;53.90;;;;;;5098892;28;19950;-60
2022/08/15 13:51:48;;;;;;;;;;;28.70;53.40;;;;;;5098211;28;19999;-65
2022/08/15 13:54:14;;;;;;;;;;;28.70;53.60;;;;;;5092868;28;19916;-65
2022/08/15 13:56:39;;;;;;;;;;;28.90;53.30;;;;;;5090239;28;19946;-65
2022/08/15 13:59:06;;;;;;;;;;;29.30;52.90;;;;;;5086188;28;19934;-65
2022/08/15 14:01:33;;;;;;;;;;;29.70;52.20;;;;;;5081926;28;20513;-65
2022/08/15 14:04:04;;;;;;;;;;;29.90;51.90;;;;;;5083431;28;20370;-65
2022/08/15 14:06:30;;;;;;;;;;;30.10;51.20;;;;;;5086705;28;20984;-65
2022/08/15 14:08:55;;;;;;;;;;;30.10;50.80;;;;;;5088561;28;19920;-64
2022/08/15 14:11:22;;;;;;;;;;;30.00;50.70;;;;;;5086852;28;19920;-65
2022/08/15 14:13:48;;;;;;;;;;;30.00;50.40;;;;;;5088234;28;19928;-65
2022/08/15 14:16:14;;;;;;;;;;;29.70;50.10;;;;;;5088686;28;20317;-65
2022/08/15 14:18:40;;;;;;;;;;;29.50;50.80;;;;;;5088634;28;20424;-60
2022/08/15 14:21:06;;;;;;;;;;;29.20;50.60;;;;;;5090102;28;19920;-65
2022/08/15 14:23:33;;;;;;;;;;;29.10;51.30;;;;;;5086724;28;20348;-64
2022/08/15 14:26:00;;;;;;;;;;;29.00;51.30;;;;;;5087871;28;19926;-64
2022/08/15 14:28:25;;;;;;;;;;;28.90;51.50;;;;;;5087901;28;20051;-61
2022/08/15 14:30:51;;;;;;;;;;;28.90;51.60;;;;;;5092039;28;19920;-61
2022/08/15 14:33:17;;;;;;;;;;;28.90;51.70;;;;;;5090112;28;19926;-61
2022/08/15 14:35:42;;;;;;;;;;;28.80;51.80;;;;;;5090361;28;19995;-65
2022/08/15 14:38:08;;;;;;;;;;;28.80;52.00;;;;;;5085697;28;20019;-60
2022/08/15 14:40:36;;;;;;;;;;;28.80;52.00;;;;;;5087559;28;19925;-61
2022/08/15 14:43:03;;;;;;;;;;;28.70;51.40;;;;;;5089326;28;19920;-60